METAR AND TAF INFORMATION
METAR FOR EGPF
ADDS - METARS form results

(0243 UTC 14 December 2018)
Data provider http://aviationweather.gov/metar/data/
 
METAR text: EGPF 140220Z AUTO 08006KT 9999 NCD M00/M02 Q1021
Conditions at: EGPF (GLASGOW AIRPORT , GB) observed 0220 UTC 14 December 2018
Temperature: 0.0°C (32°F)
Dewpoint: -2.0°C (28°F) [RH = 86%]
Pressure (altimeter): 30.15 inches Hg (1021.0 mb)
Winds: from the E (80 degrees) at 7 MPH (6 knots; 3.1 m/s)
Visibility: 6 or more miles (10+ km)
Ceiling: at least 12,000 feet AGL
Clouds: sky clear below 12,000 feet AGL
Weather: no significant weather observed at this time

METAR text: EGPF 140150Z AUTO VRB03KT 9999 NCD M00/M02 Q1021
Conditions at: EGPF (GLASGOW AIRPORT , GB) observed 0150 UTC 14 December 2018
Temperature: 0.0°C (32°F)
Dewpoint: -2.0°C (28°F) [RH = 86%]
Pressure (altimeter): 30.15 inches Hg (1021.0 mb)
Winds: variable direction winds at 3 MPH (3 knots; 1.5 m/s)
Visibility: 6 or more miles (10+ km)
Ceiling: at least 12,000 feet AGL
Clouds: sky clear below 12,000 feet AGL
Weather: no significant weather observed at this time

Forecast for: EGPF (GLASGOW AIRPORT , GB)
Text: TAF EGPF 132254Z 1400/1424 09008KT 9999 FEW030
Forecast period: 0000 UTC 14 December 2018 to 0000 UTC 15 December 2018
Forecast type: FROM: standard forecast or significant change
Winds: from the E (90 degrees) at 9 MPH (8 knots; 4.1 m/s)
Visibility: 6 or more miles 10+ km)
Ceiling: at least 12,000 feet AGL
Clouds: few clouds at 3000 feet AGL
Weather: no significant weather forecast for this period
Text: PROB30 1407/1412 8000
Forecast period: 0700 to 1200 UTC 14 December 2018
Forecast type: PROBABLE: 30 percent likelihood of the following during this time
Visibility: 5 miles (8 km)
Ceiling: unknown
Clouds: missing
Weather: no significant weather forecast for this period

 AIRPORT MAP

 RUNWAY INFORMATION
Runway 05 Runway length 8720 ft Runway width 151 ft
Runway elevation 26 ft Runway displaced threshold 0 ft Runway heading 46
Runway 23 Runway length 8720 ft Runway width 151 ft
Runway elevation 21 ft Runway displaced threshold 980 ft Runway heading 226
Runway 09 Runway length 3622 ft Runway width 151 ft
Runway elevation 17 ft Runway displaced threshold 203 ft Runway heading 91
Runway 27 Runway length 3622 ft Runway width 151 ft
Runway elevation 23 ft Runway displaced threshold 0 ft Runway heading 271

 AIRPORT FREQUENCIES
Type ACC Name SHANWICK O Frequency 120.35 MHZ
Type APP Name APP Frequency 119.1 MHZ
Type ATIS Name ATIS Frequency 129.575 MHZ
Type GND Name GND Frequency 121.7 MHZ
Type TWR Name TWR Frequency 118.8 MHZ

 AIRPORT NEAR NAVIGATION AIDS
Type NDB Name Glasgow Frequency 331 KHZ
Type VOR-DME Name Glasgow Frequency 115400 KHZ